Time;durP1;ratioP1;P1;durP2;ratioP2;P2;SDS_P1;SDS_P2;PMS_P1;PMS_P2;Temp;Humidity;BMP_temperature;BMP_pressure;BME280_temperature;BME280_humidity;BME280_pressure;Samples;Min_cycle;Max_cycle;Signal;HPM_P1;HPM_P2
2021/12/21 00:00:22;;;;;;;2.67;0.80;;;6.80;99.90;;;;;;5021998;28;20058;-55
2021/12/21 00:02:51;;;;;;;3.22;1.20;;;6.80;99.90;;;;;;5022256;28;20053;-56
2021/12/21 00:05:21;;;;;;;2.88;1.30;;;6.70;99.90;;;;;;5023429;28;20455;-53
2021/12/21 00:07:51;;;;;;;3.38;1.23;;;6.80;99.90;;;;;;5022723;28;20054;-56
2021/12/21 00:10:19;;;;;;;2.97;1.63;;;6.80;99.90;;;;;;5022726;28;20053;-53
2021/12/21 00:13:01;;;;;;;2.42;1.20;;;6.70;99.90;;;;;;5020928;28;20123;-55
2021/12/21 00:15:47;;;;;;;2.63;1.25;;;6.70;99.90;;;;;;5022728;28;20501;-54
2021/12/21 00:18:23;;;;;;;4.15;1.38;;;6.80;99.90;;;;;;5023122;28;20049;-55
2021/12/21 00:23:31;;;;;;;2.47;1.20;;;6.80;99.90;;;;;;5022999;28;20049;-56
2021/12/21 00:26:00;;;;;;;2.58;1.50;;;6.80;99.90;;;;;;5022135;28;20053;-54
2021/12/21 00:28:32;;;;;;;2.50;1.60;;;6.80;99.90;;;;;;5018908;28;20164;-55
2021/12/21 00:30:59;;;;;;;2.38;1.20;;;6.80;99.90;;;;;;5021813;28;20119;-57
2021/12/21 00:33:26;;;;;;;1.92;1.13;;;6.80;99.90;;;;;;5022584;28;20050;-55
2021/12/21 00:35:53;;;;;;;2.95;1.30;;;6.80;99.90;;;;;;5021826;28;20072;-56
2021/12/21 00:38:20;;;;;;;3.67;1.83;;;6.70;99.90;;;;;;5021092;28;20049;-56
2021/12/21 00:40:48;;;;;;;2.75;1.42;;;6.70;99.90;;;;;;5022454;28;20123;-55
2021/12/21 00:43:15;;;;;;;3.40;1.60;;;6.70;99.90;;;;;;5020827;28;20466;-56
2021/12/21 00:45:43;;;;;;;4.18;1.42;;;6.80;99.90;;;;;;5021512;28;20296;-56
2021/12/21 00:48:11;;;;;;;2.40;1.58;;;6.80;99.90;;;;;;5022628;28;20489;-56
2021/12/21 00:50:39;;;;;;;2.83;1.70;;;6.80;99.90;;;;;;5022378;28;20511;-55
2021/12/21 00:53:06;;;;;;;4.47;1.55;;;6.70;99.90;;;;;;5022346;28;20068;-55
2021/12/21 00:55:34;;;;;;;3.10;1.75;;;6.70;99.90;;;;;;5021621;28;20068;-56
2021/12/21 00:58:01;;;;;;;3.40;1.48;;;6.70;99.90;;;;;;5020939;28;20450;-54
2021/12/21 01:00:28;;;;;;;4.15;1.60;;;6.70;99.90;;;;;;5022094;28;20046;-56
2021/12/21 01:03:00;;;;;;;5.97;2.03;;;6.70;99.90;;;;;;5021188;28;20119;-54
2021/12/21 01:05:38;;;;;;;2.75;1.40;;;6.70;99.90;;;;;;5020117;28;20049;-56
2021/12/21 01:08:07;;;;;;;3.00;1.30;;;6.70;99.90;;;;;;5022441;28;20061;-56
2021/12/21 01:11:04;;;;;;;3.47;1.48;;;6.70;99.90;;;;;;5022107;28;20493;-54
2021/12/21 01:18:32;;;;;;;2.60;1.55;;;6.70;99.90;;;;;;5021289;28;20107;-55
2021/12/21 01:23:59;;;;;;;2.90;1.42;;;6.70;99.90;;;;;;5021931;28;20057;-56
2021/12/21 01:26:37;;;;;;;2.95;1.05;;;6.70;99.90;;;;;;5009115;28;20578;-56
2021/12/21 01:32:21;;;;;;;2.90;1.48;;;6.70;99.90;;;;;;5021631;28;20140;-56
2021/12/21 01:37:34;;;;;;;2.03;1.10;;;6.60;99.90;;;;;;5013902;28;20050;-56
2021/12/21 01:50:40;;;;;;;3.30;1.30;;;6.60;99.90;;;;;;5023767;28;20581;-56
2021/12/21 01:53:06;;;;;;;2.80;1.10;;;6.60;99.90;;;;;;5022916;28;20515;-56
2021/12/21 01:55:33;;;;;;;1.92;1.08;;;6.60;99.90;;;;;;5022975;28;20066;-53
2021/12/21 01:58:01;;;;;;;2.60;1.30;;;6.50;99.90;;;;;;5019843;28;20049;-54
2021/12/21 02:00:30;;;;;;;3.05;1.27;;;6.50;99.90;;;;;;5021349;28;20103;-55
2021/12/21 02:02:57;;;;;;;2.17;1.38;;;6.50;99.90;;;;;;5021282;28;20053;-54
2021/12/21 02:05:24;;;;;;;2.55;0.93;;;6.50;99.90;;;;;;5022369;28;20049;-56
2021/12/21 02:07:51;;;;;;;4.15;1.73;;;6.50;99.90;;;;;;5022439;28;20128;-54
2021/12/21 02:10:17;;;;;;;2.00;1.05;;;6.40;99.90;;;;;;5021956;28;20075;-52
2021/12/21 02:12:45;;;;;;;1.65;0.98;;;6.40;99.90;;;;;;5020783;28;20187;-55
2021/12/21 02:15:12;;;;;;;2.45;1.08;;;6.40;99.90;;;;;;5022613;28;20401;-55
2021/12/21 02:20:42;;;;;;;2.88;1.23;;;6.40;99.90;;;;;;5022733;28;20126;-52
2021/12/21 02:30:55;;;;;;;1.55;0.90;;;6.40;99.90;;;;;;5010295;28;20053;-54
2021/12/21 02:33:23;;;;;;;2.05;0.95;;;6.40;99.90;;;;;;5023091;28;20057;-54
2021/12/21 02:35:50;;;;;;;2.33;0.93;;;6.40;99.90;;;;;;5024321;28;20057;-56
2021/12/21 02:38:17;;;;;;;1.85;0.90;;;6.40;99.90;;;;;;5020465;28;20070;-55
2021/12/21 02:40:44;;;;;;;2.53;1.30;;;6.50;99.90;;;;;;5004544;28;20375;-55
2021/12/21 02:43:10;;;;;;;1.52;1.02;;;6.40;99.90;;;;;;5011393;28;20095;-56
2021/12/21 02:45:38;;;;;;;2.60;1.40;;;6.50;99.90;;;;;;5024124;28;20124;-56
2021/12/21 02:48:05;;;;;;;3.33;1.27;;;6.50;99.90;;;;;;5024334;28;20061;-56
2021/12/21 02:50:33;;;;;;;1.83;0.90;;;6.50;99.90;;;;;;5022670;28;20056;-56
2021/12/21 02:53:01;;;;;;;3.50;1.50;;;6.40;99.90;;;;;;5022095;28;20041;-55
2021/12/21 02:55:28;;;;;;;3.03;1.20;;;6.40;99.90;;;;;;5022643;28;20045;-56
2021/12/21 02:57:57;;;;;;;4.45;1.52;;;6.40;99.90;;;;;;5022061;28;20049;-56
2021/12/21 03:00:25;;;;;;;2.35;1.15;;;6.40;99.90;;;;;;5024019;28;20111;-56
2021/12/21 03:02:52;;;;;;;2.67;1.20;;;6.40;99.90;;;;;;5023923;28;20053;-54
2021/12/21 03:05:20;;;;;;;2.00;1.40;;;6.40;99.90;;;;;;5022423;28;20057;-56
2021/12/21 03:10:33;;;;;;;4.28;1.60;;;6.50;99.90;;;;;;5023690;28;20148;-54
2021/12/21 03:15:45;;;;;;;2.25;1.45;;;6.50;99.90;;;;;;5023647;28;20126;-56
2021/12/21 03:18:12;;;;;;;2.72;1.48;;;6.50;99.90;;;;;;5023453;28;20042;-55
2021/12/21 03:20:39;;;;;;;3.40;1.35;;;6.50;99.90;;;;;;5023905;28;20061;-54
2021/12/21 03:23:06;;;;;;;3.95;1.60;;;6.50;99.90;;;;;;5022802;28;20439;-54
2021/12/21 03:25:33;;;;;;;3.28;1.75;;;6.50;99.90;;;;;;5019701;28;20467;-55
2021/12/21 03:27:59;;;;;;;2.25;1.48;;;6.40;99.90;;;;;;5019898;28;20099;-54
2021/12/21 03:30:27;;;;;;;2.92;1.33;;;6.40;99.90;;;;;;5023460;28;20087;-57
2021/12/21 03:32:54;;;;;;;2.88;1.55;;;6.50;99.90;;;;;;5022902;28;20139;-55
2021/12/21 03:35:21;;;;;;;1.92;1.20;;;6.40;99.90;;;;;;5012441;28;20064;-56
2021/12/21 03:37:48;;;;;;;2.17;1.48;;;6.40;99.90;;;;;;5022719;28;20149;-55
2021/12/21 03:40:15;;;;;;;2.63;1.30;;;6.40;99.90;;;;;;5023595;28;20563;-55
2021/12/21 03:42:41;;;;;;;3.10;1.65;;;6.50;99.90;;;;;;5020055;28;20107;-54
2021/12/21 03:45:09;;;;;;;2.53;1.50;;;6.50;99.90;;;;;;5023790;28;20453;-54
2021/12/21 03:47:35;;;;;;;2.33;1.42;;;6.50;99.90;;;;;;5022825;28;20064;-54
2021/12/21 03:50:11;;;;;;;1.90;1.20;;;6.50;99.90;;;;;;5023705;28;20045;-56
2021/12/21 03:52:37;;;;;;;2.25;1.50;;;6.50;99.90;;;;;;5023168;28;20054;-55
2021/12/21 03:55:05;;;;;;;2.80;1.60;;;6.50;99.90;;;;;;5023673;28;20057;-55
2021/12/21 03:57:31;;;;;;;1.48;1.25;;;6.50;99.90;;;;;;5021375;28;20072;-56
2021/12/21 03:59:58;;;;;;;2.78;1.40;;;6.50;99.90;;;;;;5023006;28;20103;-54
2021/12/21 04:02:26;;;;;;;2.72;1.58;;;6.40;99.90;;;;;;5022711;28;20049;-55
2021/12/21 04:04:54;;;;;;;3.47;1.23;;;6.40;99.90;;;;;;5023283;28;20140;-56
2021/12/21 04:07:21;;;;;;;2.33;1.33;;;6.50;99.90;;;;;;5023063;28;20046;-54
2021/12/21 04:09:49;;;;;;;1.27;1.00;;;6.40;99.90;;;;;;5023179;28;20057;-55
2021/12/21 04:12:16;;;;;;;1.75;1.15;;;6.40;99.90;;;;;;5021008;28;20047;-56
2021/12/21 04:14:43;;;;;;;2.33;1.23;;;6.40;99.90;;;;;;5023143;28;20081;-56
2021/12/21 04:17:22;;;;;;;1.98;1.23;;;6.40;99.90;;;;;;5022883;28;20138;-56
2021/12/21 04:19:49;;;;;;;2.10;1.38;;;6.40;99.90;;;;;;5023625;28;20119;-53
2021/12/21 04:22:16;;;;;;;2.45;1.52;;;6.40;99.90;;;;;;5022653;28;20088;-55
2021/12/21 04:24:43;;;;;;;2.17;1.35;;;6.40;99.90;;;;;;5026628;28;20111;-55
2021/12/21 04:27:14;;;;;;;1.50;1.17;;;6.40;99.90;;;;;;5025281;28;20057;-53
2021/12/21 04:29:41;;;;;;;2.65;1.40;;;6.40;99.90;;;;;;5028582;28;20049;-55
2021/12/21 04:32:08;;;;;;;3.15;1.30;;;6.40;99.90;;;;;;5028530;28;20046;-55
2021/12/21 04:34:35;;;;;;;3.85;1.23;;;6.40;99.90;;;;;;5028359;28;20468;-54
2021/12/21 04:37:02;;;;;;;2.25;1.40;;;6.40;99.90;;;;;;5017159;28;20141;-55
2021/12/21 04:39:37;;;;;;;2.17;1.20;;;6.40;99.90;;;;;;5008955;28;20045;-55
2021/12/21 04:42:05;;;;;;;1.83;1.23;;;6.40;99.90;;;;;;5006228;28;20057;-56
2021/12/21 04:44:32;;;;;;;1.88;1.05;;;6.30;99.90;;;;;;5026924;28;20045;-56
2021/12/21 04:46:58;;;;;;;2.83;1.23;;;6.30;99.90;;;;;;5026904;28;20114;-55
2021/12/21 04:49:25;;;;;;;3.35;1.70;;;6.40;99.90;;;;;;5028144;28;20049;-55
2021/12/21 04:51:52;;;;;;;4.20;1.83;;;6.40;99.90;;;;;;5028139;28;20101;-55
2021/12/21 04:54:19;;;;;;;5.20;2.00;;;6.40;99.90;;;;;;5027864;28;20559;-56
2021/12/21 04:56:46;;;;;;;2.58;1.73;;;6.30;99.90;;;;;;5024365;28;20080;-53
2021/12/21 04:59:12;;;;;;;2.50;1.63;;;6.40;99.90;;;;;;5027964;28;20042;-55
2021/12/21 05:01:42;;;;;;;3.15;1.50;;;6.30;99.90;;;;;;5027441;28;20053;-55
2021/12/21 05:04:09;;;;;;;2.05;1.40;;;6.30;99.90;;;;;;5028042;28;20107;-54
2021/12/21 05:06:36;;;;;;;4.25;1.65;;;6.40;99.90;;;;;;5027644;28;20160;-55
2021/12/21 05:09:09;;;;;;;3.13;2.00;;;6.30;99.90;;;;;;5026440;28;20049;-53
2021/12/21 05:11:36;;;;;;;2.70;1.38;;;6.30;99.90;;;;;;5025861;28;20065;-53
2021/12/21 05:14:06;;;;;;;2.85;1.77;;;6.30;99.90;;;;;;5027396;28;20053;-54
2021/12/21 05:16:33;;;;;;;2.83;2.00;;;6.30;99.90;;;;;;5026737;28;20095;-52
2021/12/21 05:19:00;;;;;;;2.95;1.60;;;6.30;99.90;;;;;;5027470;28;20107;-53
2021/12/21 05:21:27;;;;;;;2.72;1.95;;;6.20;99.90;;;;;;5027291;28;20245;-54
2021/12/21 05:23:54;;;;;;;3.60;1.70;;;6.30;99.90;;;;;;5027589;28;20424;-55
2021/12/21 05:26:21;;;;;;;3.40;1.95;;;6.30;99.90;;;;;;5025403;28;20054;-55
2021/12/21 05:28:47;;;;;;;3.08;1.85;;;6.30;99.90;;;;;;5017429;28;20533;-55
2021/12/21 05:31:14;;;;;;;3.50;2.00;;;6.30;99.90;;;;;;5007780;28;20268;-55
2021/12/21 05:33:42;;;;;;;3.13;2.05;;;6.30;99.90;;;;;;5017850;28;20057;-55
2021/12/21 05:36:08;;;;;;;3.75;2.10;;;6.30;99.90;;;;;;5024446;28;20049;-53
2021/12/21 05:38:36;;;;;;;4.13;2.08;;;6.30;99.90;;;;;;5019481;28;20046;-55
2021/12/21 05:41:05;;;;;;;6.85;2.38;;;6.40;99.90;;;;;;5007345;28;20046;-51
2021/12/21 05:43:32;;;;;;;4.72;1.92;;;6.40;99.90;;;;;;5012965;28;20150;-50
2021/12/21 05:45:59;;;;;;;4.30;2.28;;;6.40;99.90;;;;;;5026964;28;20080;-55
2021/12/21 05:48:26;;;;;;;5.15;2.30;;;6.40;99.90;;;;;;5023502;28;20382;-55
2021/12/21 05:50:53;;;;;;;4.50;2.05;;;6.40;99.90;;;;;;5023854;28;20080;-53
2021/12/21 05:53:19;;;;;;;4.63;2.00;;;6.40;99.90;;;;;;5024800;28;20103;-55
2021/12/21 05:55:46;;;;;;;2.75;2.13;;;6.30;99.90;;;;;;5024902;28;20072;-54
2021/12/21 05:58:13;;;;;;;2.22;1.60;;;6.30;99.90;;;;;;5022659;28;20080;-56
2021/12/21 06:00:40;;;;;;;2.95;1.90;;;6.30;99.90;;;;;;5024938;28;20049;-55
2021/12/21 06:03:06;;;;;;;3.22;2.00;;;6.30;99.90;;;;;;5021749;28;20381;-52
2021/12/21 06:05:33;;;;;;;3.97;2.20;;;6.30;99.90;;;;;;5022850;28;20063;-55
2021/12/21 06:08:00;;;;;;;3.65;2.13;;;6.30;99.90;;;;;;5022948;28;20122;-52
2021/12/21 06:10:32;;;;;;;2.53;1.83;;;6.30;99.90;;;;;;5019199;28;20061;-54
2021/12/21 06:13:26;;;;;;;2.50;2.00;;;6.30;99.90;;;;;;5013091;28;20123;-56
2021/12/21 06:26:43;;;;;;;3.28;2.53;;;6.20;99.90;;;;;;5010561;28;20077;-56
2021/12/21 06:29:10;;;;;;;4.35;2.50;;;6.20;99.90;;;;;;5023779;28;20631;-55
2021/12/21 06:31:39;;;;;;;3.95;2.10;;;6.30;99.90;;;;;;5018067;28;20725;-56
2021/12/21 06:34:06;;;;;;;4.80;2.47;;;6.20;99.90;;;;;;5021554;28;20076;-56
2021/12/21 06:36:33;;;;;;;3.75;2.58;;;6.20;99.90;;;;;;5015509;28;20100;-55
2021/12/21 06:39:00;;;;;;;4.28;2.30;;;6.30;99.90;;;;;;5013517;28;20658;-53
2021/12/21 06:41:27;;;;;;;4.18;2.42;;;6.20;99.90;;;;;;5024482;28;20060;-56
2021/12/21 06:43:54;;;;;;;2.97;1.95;;;6.20;99.90;;;;;;5017590;28;20350;-56
2021/12/21 06:52:03;;;;;;;4.07;2.22;;;6.20;99.90;;;;;;5010635;28;20073;-57
2021/12/21 06:54:30;;;;;;;4.43;2.47;;;6.30;99.90;;;;;;5024495;28;20076;-56
2021/12/21 06:56:57;;;;;;;3.72;2.40;;;6.30;99.90;;;;;;5017943;28;20057;-56
2021/12/21 06:59:24;;;;;;;6.45;3.08;;;6.30;99.90;;;;;;5025228;28;20046;-55
2021/12/21 07:01:51;;;;;;;3.72;2.08;;;6.30;99.90;;;;;;5021872;28;20057;-56
2021/12/21 07:04:18;;;;;;;3.83;2.67;;;6.30;99.90;;;;;;5020989;28;20050;-54
2021/12/21 07:06:46;;;;;;;4.22;2.53;;;6.30;99.90;;;;;;5021044;28;20045;-55
2021/12/21 07:11:45;;;;;;;3.88;2.50;;;6.20;99.90;;;;;;5019443;28;20053;-56
2021/12/21 07:19:44;;;;;;;6.05;3.38;;;6.30;99.90;;;;;;5023352;28;20573;-55
2021/12/21 07:22:11;;;;;;;5.70;2.88;;;6.20;99.90;;;;;;5014635;28;20578;-55
2021/12/21 07:24:38;;;;;;;6.97;3.75;;;6.20;99.90;;;;;;5012400;28;20056;-56
2021/12/21 07:27:05;;;;;;;5.75;2.72;;;6.10;99.90;;;;;;5013111;28;20122;-53
2021/12/21 07:29:32;;;;;;;7.00;3.80;;;6.20;99.90;;;;;;5013292;28;20408;-54
2021/12/21 07:31:58;;;;;;;5.35;3.65;;;6.20;99.90;;;;;;5009045;28;20066;-56
2021/12/21 07:34:25;;;;;;;4.80;3.20;;;6.20;99.90;;;;;;5015383;28;20092;-56
2021/12/21 07:36:52;;;;;;;6.07;3.38;;;6.30;99.90;;;;;;5004724;28;20401;-56
2021/12/21 07:39:19;;;;;;;4.30;3.17;;;6.30;99.90;;;;;;5020934;28;20076;-55
2021/12/21 07:42:06;;;;;;;5.93;3.15;;;6.30;99.90;;;;;;5016103;28;20490;-57
2021/12/21 07:44:33;;;;;;;3.50;2.97;;;6.30;99.90;;;;;;5014134;28;20103;-54
2021/12/21 07:47:00;;;;;;;5.47;3.60;;;6.30;99.90;;;;;;5015525;28;20041;-57
2021/12/21 07:49:27;;;;;;;4.28;2.65;;;6.30;99.90;;;;;;5015849;28;20049;-53
2021/12/21 07:51:54;;;;;;;4.63;3.20;;;6.30;99.90;;;;;;5012780;28;20127;-56
2021/12/21 07:54:21;;;;;;;4.63;2.85;;;6.30;99.90;;;;;;5017783;28;20186;-54
2021/12/21 07:56:48;;;;;;;4.85;3.33;;;6.30;99.90;;;;;;5012797;28;20121;-56
2021/12/21 07:59:15;;;;;;;4.75;3.30;;;6.30;99.90;;;;;;5018683;28;20046;-55
2021/12/21 08:01:42;;;;;;;4.63;3.13;;;6.20;99.90;;;;;;5015607;28;20101;-56
2021/12/21 08:04:09;;;;;;;3.88;2.80;;;6.20;99.90;;;;;;5019563;28;20087;-55
2021/12/21 08:06:37;;;;;;;4.82;2.97;;;6.20;99.90;;;;;;5013973;28;20077;-57
2021/12/21 08:09:04;;;;;;;4.57;3.15;;;6.20;99.90;;;;;;5019993;28;20042;-55
2021/12/21 08:14:02;;;;;;;3.67;3.00;;;6.30;99.90;;;;;;5019603;28;20041;-52
2021/12/21 08:16:30;;;;;;;4.35;2.75;;;6.30;99.90;;;;;;5015429;28;20049;-56
2021/12/21 08:18:57;;;;;;;5.13;3.22;;;6.30;99.90;;;;;;5018574;28;20045;-55
2021/12/21 08:21:25;;;;;;;3.88;3.13;;;6.30;99.90;;;;;;5027840;28;20496;-57
2021/12/21 08:23:52;;;;;;;4.75;3.33;;;6.30;99.90;;;;;;5027339;28;20095;-55
2021/12/21 08:26:19;;;;;;;5.07;3.75;;;6.30;99.90;;;;;;5018538;28;20045;-54
2021/12/21 08:28:46;;;;;;;5.10;3.20;;;6.30;99.90;;;;;;5018785;28;20396;-57
2021/12/21 08:31:12;;;;;;;4.43;3.10;;;6.30;99.90;;;;;;5016262;28;20132;-55
2021/12/21 08:33:40;;;;;;;4.78;3.90;;;6.40;99.90;;;;;;5019384;28;20057;-55
2021/12/21 08:36:08;;;;;;;6.32;3.85;;;6.40;99.90;;;;;;5016481;28;20073;-57
2021/12/21 08:38:37;;;;;;;5.20;3.40;;;6.40;99.90;;;;;;5010306;28;20471;-56
2021/12/21 08:41:04;;;;;;;6.93;3.58;;;6.40;99.90;;;;;;5027994;28;20124;-57
2021/12/21 08:43:32;;;;;;;8.77;3.50;;;6.40;99.90;;;;;;5023588;28;20136;-57
2021/12/21 08:45:59;;;;;;;4.30;3.45;;;6.40;99.90;;;;;;5027309;28;20124;-55
2021/12/21 08:48:26;;;;;;;5.53;4.13;;;6.40;99.90;;;;;;5027214;28;20140;-56
2021/12/21 08:50:54;;;;;;;6.80;3.88;;;6.50;99.90;;;;;;5027018;28;20050;-57
2021/12/21 08:53:24;;;;;;;6.72;4.03;;;6.50;99.90;;;;;;5025050;28;20057;-57
2021/12/21 08:55:52;;;;;;;5.57;4.05;;;6.50;99.90;;;;;;5019034;28;20077;-57
2021/12/21 08:58:19;;;;;;;5.18;3.53;;;6.50;99.90;;;;;;5016038;28;20084;-58
2021/12/21 09:00:46;;;;;;;5.75;3.65;;;6.60;99.90;;;;;;5016117;28;20140;-57
2021/12/21 09:03:13;;;;;;;5.95;4.00;;;6.60;99.90;;;;;;5018132;28;20084;-57
2021/12/21 09:05:40;;;;;;;6.82;4.07;;;6.60;99.90;;;;;;5016623;28;20044;-56
2021/12/21 09:08:08;;;;;;;5.40;4.15;;;6.60;99.90;;;;;;5017046;28;20128;-57
2021/12/21 09:10:35;;;;;;;5.25;4.07;;;6.50;99.90;;;;;;5020261;28;20080;-57
2021/12/21 09:13:02;;;;;;;6.82;5.03;;;6.50;99.90;;;;;;5019553;28;20125;-59
2021/12/21 09:15:29;;;;;;;8.02;4.97;;;6.60;99.90;;;;;;5017289;28;20093;-56
2021/12/21 09:17:56;;;;;;;6.97;4.85;;;6.60;99.90;;;;;;5019533;28;20152;-56
2021/12/21 09:20:25;;;;;;;6.07;4.65;;;6.60;99.90;;;;;;5016691;28;20128;-57
2021/12/21 09:22:52;;;;;;;6.07;5.13;;;6.70;99.90;;;;;;5018646;28;20536;-57
2021/12/21 09:25:19;;;;;;;6.15;4.65;;;6.70;99.90;;;;;;5013931;28;20124;-57
2021/12/21 09:27:46;;;;;;;6.35;5.60;;;6.70;99.90;;;;;;5014849;28;20046;-57
2021/12/21 09:30:15;;;;;;;7.95;5.22;;;6.70;99.90;;;;;;5018597;28;20050;-56
2021/12/21 09:32:41;;;;;;;7.03;5.45;;;6.80;99.90;;;;;;5016874;28;20046;-56
2021/12/21 09:35:08;;;;;;;7.40;5.43;;;6.80;99.90;;;;;;5017619;28;20450;-57
2021/12/21 09:37:35;;;;;;;6.93;5.10;;;6.80;99.90;;;;;;5014347;28;20604;-57
2021/12/21 09:40:03;;;;;;;6.82;5.35;;;6.90;99.90;;;;;;5016251;28;20141;-57
2021/12/21 09:42:31;;;;;;;7.18;5.55;;;6.80;99.90;;;;;;5015617;28;20786;-56
2021/12/21 09:44:58;;;;;;;7.85;5.85;;;6.80;99.90;;;;;;5017361;28;20492;-54
2021/12/21 09:47:26;;;;;;;8.75;6.22;;;6.90;99.90;;;;;;5015677;28;20134;-55
2021/12/21 09:49:53;;;;;;;9.02;6.47;;;6.90;99.90;;;;;;5015906;28;20436;-56
2021/12/21 09:52:24;;;;;;;7.95;6.68;;;6.90;99.90;;;;;;5016212;28;20085;-49
2021/12/21 09:54:51;;;;;;;13.02;7.22;;;6.90;99.90;;;;;;5016684;28;20076;-57
2021/12/21 09:57:19;;;;;;;9.30;6.57;;;7.00;99.90;;;;;;5012493;28;20046;-53
2021/12/21 09:59:46;;;;;;;8.48;6.20;;;7.00;99.90;;;;;;5017326;28;20045;-57
2021/12/21 10:02:13;;;;;;;8.52;5.93;;;7.00;99.90;;;;;;5017624;28;20072;-56
2021/12/21 10:04:50;;;;;;;8.13;6.13;;;7.10;99.90;;;;;;5014115;28;20133;-56
2021/12/21 10:07:18;;;;;;;7.00;5.60;;;7.10;99.90;;;;;;5016026;28;20546;-55
2021/12/21 10:09:47;;;;;;;10.25;5.80;;;7.10;99.90;;;;;;5012882;28;20132;-55
2021/12/21 10:12:14;;;;;;;8.32;5.70;;;7.20;99.90;;;;;;5014729;28;20053;-58
2021/12/21 10:14:41;;;;;;;7.55;6.22;;;7.20;99.90;;;;;;5021032;28;20148;-52
2021/12/21 10:17:09;;;;;;;6.82;5.57;;;7.20;99.90;;;;;;5011823;28;20059;-56
2021/12/21 10:19:36;;;;;;;11.57;5.53;;;7.20;99.90;;;;;;5008921;28;20797;-56
2021/12/21 10:22:08;;;;;;;8.27;6.25;;;7.20;99.90;;;;;;5009610;28;20085;-57
2021/12/21 10:24:43;;;;;;;8.95;6.38;;;7.30;99.90;;;;;;5017308;28;20708;-57
2021/12/21 10:27:10;;;;;;;11.18;6.53;;;7.30;99.90;;;;;;5012288;28;20132;-56
2021/12/21 10:29:46;;;;;;;8.60;6.93;;;7.30;99.90;;;;;;5010355;28;20140;-56
2021/12/21 10:32:32;;;;;;;8.10;5.70;;;7.30;99.90;;;;;;5007999;28;20614;-57
2021/12/21 10:35:08;;;;;;;9.77;6.70;;;7.40;99.90;;;;;;5007399;28;20180;-57
2021/12/21 10:37:37;;;;;;;7.72;6.05;;;7.40;99.90;;;;;;5008617;28;20144;-57
2021/12/21 10:40:23;;;;;;;8.63;6.35;;;7.40;99.90;;;;;;5009248;28;20046;-57
2021/12/21 10:43:00;;;;;;;9.40;6.78;;;7.50;99.90;;;;;;5008505;28;20164;-58
2021/12/21 10:45:57;;;;;;;9.23;6.25;;;7.50;99.90;;;;;;5009586;28;20050;-56
2021/12/21 10:48:26;;;;;;;8.82;6.40;;;7.40;99.90;;;;;;5011847;28;20088;-57
2021/12/21 10:50:53;;;;;;;6.70;5.47;;;7.50;99.90;;;;;;5012754;28;20116;-57
2021/12/21 10:53:25;;;;;;;7.80;5.55;;;7.50;99.90;;;;;;5014088;28;20049;-54
2021/12/21 10:56:04;;;;;;;9.02;6.10;;;7.60;99.90;;;;;;5014573;28;20053;-57
2021/12/21 10:58:32;;;;;;;8.55;6.68;;;7.60;99.90;;;;;;5014127;28;20140;-55
2021/12/21 11:01:01;;;;;;;8.07;6.60;;;7.60;99.90;;;;;;5009925;28;20129;-57
2021/12/21 11:03:50;;;;;;;8.93;5.75;;;7.60;99.90;;;;;;5018030;28;20061;-56
2021/12/21 11:06:27;;;;;;;7.07;5.70;;;7.60;99.90;;;;;;5016004;28;20203;-57
2021/12/21 11:08:54;;;;;;;8.43;6.07;;;7.60;99.90;;;;;;5017683;28;20080;-55
2021/12/21 11:11:30;;;;;;;7.60;5.30;;;7.70;99.90;;;;;;5012750;28;20141;-56
2021/12/21 11:14:17;;;;;;;8.57;6.30;;;7.70;99.90;;;;;;5013004;28;20444;-56
2021/12/21 11:16:51;;;;;;;7.32;5.55;;;7.70;99.90;;;;;;5013194;28;20076;-58
2021/12/21 11:19:19;;;;;;;7.75;5.60;;;7.80;99.90;;;;;;5011952;28;20046;-56
2021/12/21 11:21:46;;;;;;;6.90;5.32;;;7.80;99.90;;;;;;5015850;28;20138;-56
2021/12/21 11:24:14;;;;;;;6.03;5.43;;;7.80;99.90;;;;;;5014455;28;20046;-56
2021/12/21 11:26:42;;;;;;;8.50;5.88;;;7.90;99.90;;;;;;5008055;28;20104;-56
2021/12/21 11:29:14;;;;;;;7.53;5.55;;;7.90;99.90;;;;;;5014167;28;20041;-55
2021/12/21 11:31:43;;;;;;;6.97;6.05;;;7.90;99.90;;;;;;5012677;28;20132;-57
2021/12/21 11:34:14;;;;;;;6.95;5.35;;;7.90;99.90;;;;;;5014658;28;20053;-53
2021/12/21 11:39:32;;;;;;;7.72;5.50;;;7.90;99.90;;;;;;5022295;28;20118;-57
2021/12/21 11:42:02;;;;;;;7.88;6.45;;;7.90;99.90;;;;;;5011698;28;20057;-54
2021/12/21 11:44:29;;;;;;;6.88;5.47;;;7.90;99.90;;;;;;5017558;28;20046;-57
2021/12/21 11:47:01;;;;;;;7.47;5.43;;;7.90;99.90;;;;;;5024387;28;20116;-56
2021/12/21 11:49:41;;;;;;;6.88;5.28;;;7.90;99.90;;;;;;5018832;28;20464;-56
2021/12/21 11:52:13;;;;;;;7.90;5.72;;;8.00;99.90;;;;;;5017660;28;20053;-55
2021/12/21 11:54:54;;;;;;;6.85;5.40;;;8.10;99.90;;;;;;5018615;28;20156;-55
2021/12/21 11:57:34;;;;;;;6.28;5.20;;;8.10;99.90;;;;;;5016230;28;20128;-56
2021/12/21 12:00:13;;;;;;;8.40;4.55;;;8.10;99.90;;;;;;5018562;28;20045;-54
2021/12/21 12:02:42;;;;;;;6.18;4.82;;;8.10;99.90;;;;;;5019609;28;20084;-54
2021/12/21 12:05:25;;;;;;;5.45;4.20;;;8.20;99.90;;;;;;5017196;28;20081;-56
2021/12/21 12:08:02;;;;;;;6.32;4.63;;;8.20;99.90;;;;;;5018274;28;20133;-54
2021/12/21 12:10:29;;;;;;;6.97;5.15;;;8.30;99.90;;;;;;5020183;28;20508;-53
2021/12/21 12:13:10;;;;;;;8.20;5.78;;;8.20;99.90;;;;;;5017254;28;20053;-55
2021/12/21 12:15:51;;;;;;;5.63;5.00;;;8.20;99.90;;;;;;5015967;28;20501;-56
2021/12/21 12:18:31;;;;;;;5.95;4.45;;;8.20;99.90;;;;;;5015534;28;20045;-54
2021/12/21 12:20:59;;;;;;;7.30;4.18;;;8.20;99.90;;;;;;5017662;28;20487;-56
2021/12/21 12:23:26;;;;;;;5.47;4.55;;;8.30;99.90;;;;;;5017125;28;20107;-54
2021/12/21 12:25:57;;;;;;;4.22;3.80;;;8.30;99.90;;;;;;5012786;28;20480;-56
2021/12/21 12:28:27;;;;;;;6.25;3.63;;;8.30;99.90;;;;;;5011826;28;20045;-56
2021/12/21 12:30:53;;;;;;;6.00;4.35;;;8.20;99.90;;;;;;5017768;28;20124;-55
2021/12/21 12:33:20;;;;;;;4.78;3.17;;;8.30;99.90;;;;;;5015454;28;20136;-56
2021/12/21 12:35:47;;;;;;;7.00;4.05;;;8.20;99.90;;;;;;5023981;28;20136;-56
2021/12/21 12:38:20;;;;;;;5.05;3.60;;;8.20;99.90;;;;;;5018875;28;20096;-56
2021/12/21 12:40:53;;;;;;;4.57;3.72;;;8.10;99.90;;;;;;5019004;28;20161;-56
2021/12/21 12:43:21;;;;;;;7.00;3.75;;;8.10;99.90;;;;;;5018156;28;20140;-55
2021/12/21 12:46:03;;;;;;;6.15;3.92;;;8.10;99.90;;;;;;5021346;28;20167;-57
2021/12/21 12:48:32;;;;;;;8.52;4.40;;;8.10;99.90;;;;;;5021832;28;20532;-57
2021/12/21 12:51:02;;;;;;;8.02;4.30;;;8.10;99.90;;;;;;5021708;28;20124;-57
2021/12/21 12:53:43;;;;;;;6.40;3.97;;;8.20;99.90;;;;;;5021326;28;20133;-57
2021/12/21 12:56:14;;;;;;;6.07;4.18;;;8.20;99.90;;;;;;5021959;28;20099;-56
2021/12/21 12:58:51;;;;;;;4.65;4.03;;;8.20;99.90;;;;;;5019496;28;20083;-57
2021/12/21 13:01:22;;;;;;;7.28;4.07;;;8.30;99.90;;;;;;5021884;28;20136;-56
2021/12/21 13:03:50;;;;;;;6.30;4.25;;;8.30;99.90;;;;;;5021424;28;20121;-56
2021/12/21 13:06:27;;;;;;;4.80;4.22;;;8.20;99.90;;;;;;5021589;28;20065;-54
2021/12/21 13:08:54;;;;;;;5.80;4.20;;;8.10;99.90;;;;;;5021523;28;20751;-56
2021/12/21 13:11:24;;;;;;;6.20;3.85;;;8.00;99.90;;;;;;5021464;28;20136;-58
2021/12/21 13:13:53;;;;;;;6.43;5.28;;;8.00;99.90;;;;;;5002439;28;20081;-57
2021/12/21 13:16:22;;;;;;;6.07;3.92;;;8.10;99.90;;;;;;5020243;28;20053;-55
2021/12/21 13:19:05;;;;;;;6.05;4.03;;;8.10;99.90;;;;;;5021755;28;20132;-57
2021/12/21 13:22:04;;;;;;;6.13;3.92;;;8.10;99.90;;;;;;5019716;28;20164;-55
2021/12/21 13:24:33;;;;;;;4.47;3.60;;;8.00;99.90;;;;;;5021136;28;20547;-55
2021/12/21 13:27:02;;;;;;;5.13;4.20;;;8.00;99.90;;;;;;5017677;28;20053;-56
2021/12/21 13:29:35;;;;;;;5.15;4.18;;;8.00;99.90;;;;;;5019446;28;20049;-57
2021/12/21 13:32:11;;;;;;;5.15;4.05;;;8.00;99.90;;;;;;5020895;28;20080;-57
2021/12/21 13:34:41;;;;;;;5.63;4.05;;;8.00;99.90;;;;;;5012605;28;20089;-57
2021/12/21 13:37:11;;;;;;;6.40;4.03;;;8.00;99.90;;;;;;5011942;28;20042;-54
2021/12/21 13:39:44;;;;;;;4.75;4.03;;;8.00;99.90;;;;;;5011186;28;20212;-57
2021/12/21 13:42:14;;;;;;;6.43;5.13;;;7.90;99.90;;;;;;5010705;28;20057;-54
2021/12/21 13:44:47;;;;;;;4.90;4.40;;;7.90;99.90;;;;;;5016777;28;20049;-56
2021/12/21 13:47:14;;;;;;;8.88;4.75;;;7.90;99.90;;;;;;5019531;28;20132;-55
2021/12/21 13:50:27;;;;;;;5.53;4.38;;;7.90;99.90;;;;;;5019413;28;20053;-56
2021/12/21 13:53:03;;;;;;;6.25;4.47;;;7.90;99.90;;;;;;5017761;28;20084;-55
2021/12/21 13:55:51;;;;;;;5.65;3.75;;;8.00;99.90;;;;;;5019552;28;20516;-55
2021/12/21 13:58:18;;;;;;;7.78;5.35;;;8.00;99.90;;;;;;5014816;28;20085;-56
2021/12/21 14:00:51;;;;;;;6.47;5.57;;;8.00;99.90;;;;;;5013622;28;20050;-56
2021/12/21 14:03:27;;;;;;;6.25;4.65;;;7.90;99.90;;;;;;5016400;28;20057;-56
2021/12/21 14:06:08;;;;;;;5.95;4.38;;;7.70;99.90;;;;;;5016098;28;20515;-57
2021/12/21 14:08:38;;;;;;;7.53;5.07;;;7.70;99.90;;;;;;5009702;28;20137;-54
2021/12/21 14:11:08;;;;;;;5.45;4.70;;;7.70;99.90;;;;;;5017725;28;20060;-57
2021/12/21 14:13:40;;;;;;;6.82;4.32;;;7.70;99.90;;;;;;5025914;28;20049;-56
2021/12/21 14:16:21;;;;;;;5.88;4.28;;;7.70;99.90;;;;;;5031363;28;20045;-57
2021/12/21 14:18:50;;;;;;;5.35;4.22;;;7.70;99.90;;;;;;5014727;28;20444;-56
2021/12/21 14:21:19;;;;;;;4.85;4.00;;;7.70;99.90;;;;;;5020188;28;20070;-56
2021/12/21 14:23:49;;;;;;;5.45;4.60;;;7.70;99.90;;;;;;5019681;28;20047;-55